Home     Timetable: Administration Van Wijkplaats - Faculty of Humanities
Latin American Studies Master
  
Timetable Last published on 07-07-2020 13:27
Semester II, 2019-2020
February March April May June july August
mo tu we th fr sa su   mo tu we th fr sa su mo tu we th fr sa su mo tu we th fr sa su mo tu we th fr sa su mo tu we th fr sa su mo tu we th fr sa su
5 1 2   9 1 14 1 2 3 4 5 18 1 2 3 23 1 2 3 4 5 6 7 27 1 2 3 4 5 31 1 2
6 3 4 5 6 7 8 9   10 2 3 4 5 6 7 8 15 6 7 8 9 10 11 12 19 4 5 6 7 8 9 10 24 8 9 10 11 12 13 14 28 6 7 8 9 10 11 12 32 3 4 5 6 7 8 9
7 10 11 12 13 14 15 16 11 9 10 11 12 13 14 15 16 13 14 15 16 17 18 19 20 11 12 13 14 15 16 17 25 15 16 17 18 19 20 21 29 13 14 15 16 17 18 19 33 10 11 12 13 14 15 16
8 17 18 19 20 21 22 23 12 16 17 18 19 20 21 22 17 20 21 22 23 24 25 26 21 18 19 20 21 22 23 24 26 22 23 24 25 26 27 28 30 20 21 22 23 24 25 26 34 17 18 19 20 21 22 23
9 24 25 26 27 28 29 13 23 24 25 26 27 28 29 18 27 28 29 30 22 25 26 27 28 29 30 31 27 29 30 31 27 28 29 30 31 35 24 25 26 27 28 29 30
14 30 31 36 31

Subject to change.

  Classes
  No classes or exams/Holidays
  No classes after 1 pm (Dies Natalis)
  Exam and Resit Period
  Humanities Career Event
  EL CID week, exam free
  The Hague Orientation Programme
  Orientation Week Leiden

Schedule is subject to change and may have additions. Information may be changed or updated without notice.

Core curriculum groups
Year calendar

Monday Group Catalog Nbr. Date (d/m) Start/End Tutor Location USIS-Actnbr. ZRS-id
Chile Visiting Chair 2020 SCH 101 5654KCC20R 18/5 09:00-09:01 Silva N.A/N.A 12784 A739399
Desplazamiento SCH 101 5654KLA23R 18/5 09:00-09:01 Brandellero/Churampi Ramirez/Inzaurralde N.A/N.A 9272 A729675
Methods of Cultural An. SCH 101 5654VLA03R 18/5 09:00-09:01 Timmer N.A/N.A 9260 A729676
Methods: Putting Theory SCH 101 5654VPTPR 18/5 09:00-09:01 Parafita Couto N.A/N.A 9288 A729677
Modernidad en América Lat. SCH 101 5654KLA02R 18/5 09:00-09:01 Isla Monsalve N.A/N.A 9262 A729678
Onderzoeksseminar GS SCH 101 5654I5013R 18/5 09:00-09:01 Isla Monsalve N.A/N.A 9257 A729680
State-Social Movements SCH 101 5654KLA11R 18/5 09:00-09:01 Valdivia Rivera N.A/N.A 9275 A729681
Thematic Course Cult. An. SCH 101 5654KLA03R 18/5 09:00-09:01 Timmer N.A/N.A 9264 A729685
Topics in Lat Am Ling SCH 101 5654KLA08R 18/5 09:00-09:01 Gonzalez Gonzalez N.A/N.A 9266 A729686
Contemporary Brazil SCH 101 5184KIS22R 25/5 00:00-00:01 Amann N.A/N.A 9469 A767348
Issues in Lat.Am. For Poli SCH 101 5184KIS28R 25/5 00:00-00:01 Sheppard N.A/N.A 9481 A767332
Language Contact SCH 101 5194KLD08R 25/5 17:00-17:01 Moody N.A/N.A 14296 A743504
Desplazamiento SCH 901 5654KLA23R 15/6 09:00-09:01 Brandellero/Churampi Ramirez/Inzaurralde N.A/N.A 9273 A729739
Methods of Cultural An. SCH 901 5654VLA03R 15/6 09:00-09:01 Timmer N.A/N.A 9261 A729742
Methods: Putting Theory SCH 901 5654VPTPR 15/6 09:00-09:01 Parafita Couto N.A/N.A 9289 A729743
Modernidad en América Lat. SCH 901 5654KLA02R 15/6 09:00-09:01 Isla Monsalve N.A/N.A 9263 A729746
State-Social Movements SCH 901 5654KLA11R 15/6 09:00-09:01 Valdivia Rivera N.A/N.A 9276 A729747
Thematic Course Cult. An. SCH 901 5654KLA03R 15/6 09:00-09:01 Timmer N.A/N.A 9265 A729749
Topics in Lat Am Ling SCH 901 5654KLA08R 15/6 09:00-09:01 Gonzalez Gonzalez N.A/N.A 9267 A729750
Onderzoeksseminar GS SCH 901 5654I5013R 22/6 09:00-09:01 Isla Monsalve N.A/N.A 9258 A729769
Friday Group Catalog Nbr. Date (d/m) Start/End Tutor Location USIS-Actnbr. ZRS-id
Contemporary Brazil SCH 101 5184KIS22R 29/5 22:00-22:01 Amann N.A/N.A 9469 A729984
Issues in Lat.Am. For Poli SCH 101 5184KIS28R 29/5 22:00-22:01 Sheppard N.A/N.A 9481 A729968
Chile Visiting Chair 2020 SCH 901 5654KCC20R 26/6 09:00-09:01 Silva N.A/N.A 12785 A739405
Language Contact SCH 901 5194KLD08R 26/6 17:00-17:01 Moody N.A/N.A 14297 A743505
Contemporary Brazil SCH 901 5184KIS22R 26/6 22:00-22:01 Amann N.A/N.A 9470 A729985
Issues in Lat.Am. For Poli SCH 901 5184KIS28R 26/6 22:00-22:01 Sheppard N.A/N.A 9482 A729969
Contemporary Brazil SCH 901 5184KIS22R 10/7 00:00-00:01 Amann N.A/N.A 9470 A767349
Issues in Lat.Am. For Poli SCH 901 5184KIS28R 10/7 00:00-00:01 Sheppard N.A/N.A 9482 A767334

Legend
N.A Not Applicable/Niet van toepassing